Time;durP1;ratioP1;P1;durP2;ratioP2;P2;SDS_P1;SDS_P2;PMS_P1;PMS_P2;Temp;Humidity;BMP_temperature;BMP_pressure;BME280_temperature;BME280_humidity;BME280_pressure;Samples;Min_cycle;Max_cycle;Signal;HPM_P1;HPM_P2
2022/06/09 00:01:52;;;;;;;3.20;1.23;;;;;;;25.03;48.98;99708.34;5077465;28;20032;-80
2022/06/09 00:04:27;;;;;;;2.50;1.17;;;;;;;25.04;48.80;99699.34;5076204;28;20059;-81
2022/06/09 00:07:00;;;;;;;2.72;1.40;;;;;;;25.03;49.00;99703.00;5076670;28;20029;-81
2022/06/09 00:09:33;;;;;;;2.55;1.10;;;;;;;25.02;48.90;99701.25;5076176;28;20135;-82
2022/06/09 00:11:59;;;;;;;2.10;1.00;;;;;;;25.02;48.92;99695.94;5077611;28;20086;-82
2022/06/09 00:14:26;;;;;;;2.08;1.30;;;;;;;25.02;48.81;99696.78;5077564;28;20055;-82
2022/06/09 00:16:52;;;;;;;2.25;1.00;;;;;;;25.00;49.04;99692.53;5078931;28;20499;-82
2022/06/09 00:19:18;;;;;;;2.60;1.13;;;;;;;24.98;48.98;99697.97;5078156;28;20028;-81
2022/06/09 00:21:44;;;;;;;2.63;1.02;;;;;;;24.99;48.80;99691.66;5076467;28;20028;-82
2022/06/09 00:24:10;;;;;;;2.33;1.00;;;;;;;24.99;48.91;99691.66;5076706;28;20025;-83
2022/06/09 00:26:35;;;;;;;2.85;1.20;;;;;;;24.98;48.64;99692.63;5076488;28;20144;-81
2022/06/09 00:29:01;;;;;;;1.73;0.90;;;;;;;24.97;48.79;99698.09;5077462;28;20036;-80
2022/06/09 00:31:27;;;;;;;2.65;1.20;;;;;;;24.97;48.86;99698.09;5076622;28;20025;-81
2022/06/09 00:33:53;;;;;;;2.05;1.10;;;;;;;24.96;48.74;99699.06;5077432;28;20075;-83
2022/06/09 00:36:19;;;;;;;2.17;1.10;;;;;;;24.94;48.89;99697.34;5076182;28;20028;-81
2022/06/09 00:38:46;;;;;;;2.75;0.95;;;;;;;24.94;48.65;99702.69;5076949;28;20039;-81
2022/06/09 00:41:12;;;;;;;2.08;1.02;;;;;;;24.96;48.80;99693.72;5075787;28;20028;-80
2022/06/09 00:43:41;;;;;;;2.05;1.02;;;;;;;24.94;48.57;99691.19;5076053;28;20105;-83
2022/06/09 00:46:23;;;;;;;2.97;1.10;;;;;;;24.93;48.72;99689.47;5075413;28;20032;-83
2022/06/09 00:49:06;;;;;;;2.47;1.13;;;;;;;24.90;48.91;99685.19;5074240;28;20032;-82
2022/06/09 00:51:38;;;;;;;4.47;1.00;;;;;;;24.90;48.89;99687.88;5074889;28;20405;-82
2022/06/09 00:54:20;;;;;;;3.00;0.73;;;;;;;24.88;48.74;99679.13;5074917;28;20032;-83
2022/06/09 00:56:53;;;;;;;3.70;1.45;;;;;;;24.89;48.78;99680.00;5078487;28;20425;-80
2022/06/09 00:59:22;;;;;;;2.38;0.90;;;;;;;24.86;48.92;99683.75;5075068;28;20035;-82
2022/06/09 01:01:48;;;;;;;2.40;1.20;;;;;;;24.88;48.72;99689.81;5076201;28;20056;-81
2022/06/09 01:04:17;;;;;;;1.67;0.80;;;;;;;24.86;48.72;99689.09;5075119;28;20021;-81
2022/06/09 01:06:51;;;;;;;2.20;0.85;;;;;;;24.86;48.69;99694.41;5075275;28;20420;-80
2022/06/09 01:09:23;;;;;;;2.17;1.02;;;;;;;24.85;48.72;99690.06;5075961;28;20055;-82
2022/06/09 01:11:51;;;;;;;2.10;1.17;;;;;;;24.85;48.75;99695.38;5074824;28;20123;-82
2022/06/09 01:14:23;;;;;;;2.67;1.13;;;;;;;24.84;48.71;99703.50;5075227;28;20474;-81
2022/06/09 01:17:29;;;;;;;2.78;1.20;;;;;;;24.83;48.87;99707.13;5074955;28;20031;-80
2022/06/09 01:20:16;;;;;;;2.58;1.13;;;;;;;24.80;48.64;99702.84;5075243;28;20039;-81
2022/06/09 01:23:09;;;;;;;2.35;1.00;;;;;;;24.80;48.63;99714.34;5075765;28;20523;-80
2022/06/09 01:25:35;;;;;;;2.72;1.27;;;;;;;24.79;48.64;99711.81;5076462;28;20111;-82
2022/06/09 01:28:25;;;;;;;4.40;1.08;;;;;;;24.77;48.89;99714.59;5075661;28;20056;-82
2022/06/09 01:31:02;;;;;;;3.35;0.85;;;;;;;24.77;48.93;99719.94;5075795;28;20016;-81
2022/06/09 01:34:09;;;;;;;3.05;1.10;;;;;;;24.75;48.88;99718.34;5075265;28;20092;-82
2022/06/09 01:36:37;;;;;;;2.47;0.93;;;;;;;24.75;48.62;99721.84;5072524;28;20422;-82
2022/06/09 01:39:05;;;;;;;2.80;1.13;;;;;;;24.74;48.81;99730.81;5076759;28;20025;-82
2022/06/09 01:41:31;;;;;;;1.80;0.85;;;;;;;24.73;48.82;99733.59;5076621;28;20017;-82
2022/06/09 01:43:58;;;;;;;1.13;0.80;;;;;;;24.71;48.68;99731.06;5077891;28;20434;-80
2022/06/09 01:46:35;;;;;;;2.28;0.95;;;;;;;24.72;48.75;99742.56;5076088;28;20025;-82
2022/06/09 01:49:13;;;;;;;4.07;1.08;;;;;;;24.71;48.70;99746.19;5078827;28;20029;-81
2022/06/09 01:51:43;;;;;;;2.78;1.15;;;;;;;24.71;48.86;99747.06;5076855;28;20039;-83
2022/06/09 01:54:27;;;;;;;2.28;0.80;;;;;;;24.68;48.66;99747.28;5078810;28;20028;-83
2022/06/09 01:57:04;;;;;;;2.25;0.90;;;;;;;24.67;48.76;99741.09;5076717;28;20066;-82
2022/06/09 01:59:40;;;;;;;1.42;0.88;;;;;;;24.67;48.45;99742.91;5076875;28;20088;-82
2022/06/09 02:02:19;;;;;;;1.83;0.90;;;;;;;24.68;48.58;99741.94;5077345;28;20059;-82
2022/06/09 02:04:56;;;;;;;2.67;0.90;;;;;;;24.67;48.52;99741.09;5079355;28;20030;-83
2022/06/09 02:07:23;;;;;;;2.15;1.00;;;;;;;24.65;48.67;99737.69;5080366;28;20024;-84
2022/06/09 02:09:49;;;;;;;2.22;1.05;;;;;;;24.63;48.76;99734.28;5080722;28;20402;-83
2022/06/09 02:12:22;;;;;;;1.88;1.17;;;;;;;24.61;48.72;99730.00;5081382;28;20079;-83
2022/06/09 02:14:51;;;;;;;2.95;1.23;;;;;;;24.60;48.63;99731.81;5079092;28;20488;-84
2022/06/09 02:17:17;;;;;;;1.77;0.90;;;;;;;24.60;48.72;99734.47;5083933;28;20028;-84
2022/06/09 02:19:44;;;;;;;2.42;1.05;;;;;;;24.58;48.40;99720.41;5078463;28;20024;-83
2022/06/09 02:22:11;;;;;;;2.08;0.80;;;;;;;24.57;48.78;99726.72;5076563;28;20025;-82
2022/06/09 02:24:37;;;;;;;2.03;0.70;;;;;;;24.57;48.53;99720.50;5074099;28;20024;-82
2022/06/09 02:27:04;;;;;;;2.88;1.02;;;;;;;24.57;48.64;99718.72;5075021;28;20024;-80
2022/06/09 02:29:29;;;;;;;3.35;1.00;;;;;;;24.57;48.70;99734.72;5075099;28;20039;-81
2022/06/09 02:31:55;;;;;;;1.75;0.80;;;;;;;24.54;48.75;99737.59;5075175;28;20025;-81
2022/06/09 02:34:21;;;;;;;2.53;1.00;;;;;;;24.56;48.65;99733.03;5074049;28;20025;-82
2022/06/09 02:36:47;;;;;;;2.20;0.88;;;;;;;24.55;48.56;99736.63;5074269;28;20043;-83
2022/06/09 02:39:12;;;;;;;2.08;0.80;;;;;;;24.54;48.81;99735.78;5075141;28;20024;-81
2022/06/09 02:41:38;;;;;;;3.38;0.90;;;;;;;24.53;48.49;99739.44;5073886;28;20082;-80
2022/06/09 02:44:04;;;;;;;1.25;0.60;;;;;;;24.52;48.58;99731.53;5075022;28;20024;-81
2022/06/09 02:46:31;;;;;;;3.03;1.10;;;;;;;24.50;48.70;99739.63;5074395;28;20378;-80
2022/06/09 02:48:57;;;;;;;2.65;0.90;;;;;;;24.50;48.65;99738.81;5074941;28;20094;-82
2022/06/09 02:51:28;;;;;;;3.25;1.00;;;;;;;24.48;48.70;99735.38;5073810;28;20410;-82
2022/06/09 02:53:55;;;;;;;1.60;0.70;;;;;;;24.49;48.56;99734.41;5073601;28;20040;-80
2022/06/09 02:56:21;;;;;;;1.85;0.77;;;;;;;24.48;48.59;99740.69;5074639;28;20085;-82
2022/06/09 02:58:47;;;;;;;2.88;1.35;;;;;;;24.46;48.64;99739.97;5073830;28;20040;-82
2022/06/09 03:01:12;;;;;;;2.20;0.90;;;;;;;24.46;48.59;99745.31;5073686;28;20017;-81
2022/06/09 03:03:38;;;;;;;2.63;0.82;;;;;;;24.46;48.65;99737.31;5077109;28;20104;-82
2022/06/09 03:06:03;;;;;;;3.53;1.10;;;;;;;24.45;48.73;99735.59;5074873;28;20084;-81
2022/06/09 03:08:30;;;;;;;2.78;0.90;;;;;;;24.44;48.32;99733.91;5074497;28;20032;-79
2022/06/09 03:10:55;;;;;;;2.83;0.88;;;;;;;24.43;48.54;99735.72;5074464;28;20037;-81
2022/06/09 03:13:21;;;;;;;2.42;0.70;;;;;;;24.41;48.74;99734.97;5075491;28;20427;-81
2022/06/09 03:15:47;;;;;;;2.85;0.93;;;;;;;24.42;48.43;99741.16;5078634;28;20048;-82
2022/06/09 03:18:17;;;;;;;2.25;0.70;;;;;;;24.41;48.31;99750.97;5077292;28;20047;-80
2022/06/09 03:20:46;;;;;;;1.92;0.93;;;;;;;24.40;48.56;99754.59;5078282;28;20426;-80
2022/06/09 03:23:11;;;;;;;2.05;0.80;;;;;;;24.42;48.59;99746.47;5078074;28;20025;-81
2022/06/09 03:25:37;;;;;;;2.80;1.08;;;;;;;24.42;48.65;99754.47;5077233;28;20032;-80
2022/06/09 03:28:04;;;;;;;2.72;0.90;;;;;;;24.40;48.49;99754.59;5078048;28;20414;-82
2022/06/09 03:30:29;;;;;;;2.22;0.90;;;;;;;24.40;48.66;99755.44;5077071;28;20075;-82
2022/06/09 03:32:55;;;;;;;3.05;1.00;;;;;;;24.36;48.50;99759.28;5077201;28;20450;-80
2022/06/09 03:35:21;;;;;;;3.10;1.00;;;;;;;24.37;48.49;99758.31;5077440;28;20020;-81
2022/06/09 03:37:46;;;;;;;3.67;1.02;;;;;;;24.37;48.69;99770.81;5078021;28;20157;-82
2022/06/09 03:40:14;;;;;;;1.67;0.80;;;;;;;24.36;48.52;99769.94;5077143;28;20335;-82
2022/06/09 03:42:40;;;;;;;3.05;0.80;;;;;;;24.34;48.66;99761.22;5079848;28;20404;-81
2022/06/09 03:45:06;;;;;;;2.58;1.00;;;;;;;24.31;48.69;99766.75;5079789;28;20107;-80
2022/06/09 03:47:32;;;;;;;2.28;0.90;;;;;;;24.30;48.70;99765.06;5078972;28;20126;-82
2022/06/09 03:49:58;;;;;;;2.78;0.70;;;;;;;24.29;48.66;99763.34;5076393;28;20104;-82
2022/06/09 03:52:23;;;;;;;1.40;0.60;;;;;;;24.30;48.57;99765.06;5076401;28;20175;-80
2022/06/09 03:54:49;;;;;;;2.47;0.98;;;;;;;24.29;48.48;99763.34;5076518;28;20082;-80
2022/06/09 03:57:14;;;;;;;2.55;0.75;;;;;;;24.29;48.86;99762.47;5076671;28;20028;-82
2022/06/09 03:59:40;;;;;;;2.15;0.75;;;;;;;24.27;48.49;99773.28;5077541;28;20028;-80
2022/06/09 04:02:06;;;;;;;1.60;0.80;;;;;;;24.27;48.64;99762.63;5076868;28;20059;-82
2022/06/09 04:04:31;;;;;;;3.28;0.90;;;;;;;24.24;48.76;99765.47;5076553;28;20024;-80
2022/06/09 04:06:58;;;;;;;3.33;0.80;;;;;;;24.24;48.68;99773.47;5076696;28;20449;-82
2022/06/09 04:09:23;;;;;;;1.90;0.80;;;;;;;24.22;48.90;99772.75;5078476;28;20399;-81
2022/06/09 04:11:49;;;;;;;2.20;0.70;;;;;;;24.22;48.59;99783.41;5078373;28;20032;-82
2022/06/09 04:14:14;;;;;;;2.13;0.73;;;;;;;24.23;48.66;99780.66;5080207;28;20469;-82
2022/06/09 04:16:45;;;;;;;3.50;0.70;;;;;;;24.21;48.46;99789.72;5078938;28;20025;-82
2022/06/09 04:19:16;;;;;;;2.20;1.10;;;;;;;24.21;48.59;99787.88;5078614;28;20024;-82
2022/06/09 04:21:43;;;;;;;2.15;1.02;;;;;;;24.20;48.61;99786.19;5079075;28;20025;-83
2022/06/09 04:24:09;;;;;;;3.38;1.05;;;;;;;24.18;48.81;99781.91;5081953;28;20024;-82
2022/06/09 04:26:37;;;;;;;2.10;0.77;;;;;;;24.18;48.63;99792.56;5082009;28;20506;-83
2022/06/09 04:29:05;;;;;;;1.80;0.63;;;;;;;24.19;48.54;99795.16;5083166;28;20028;-83
2022/06/09 04:31:32;;;;;;;1.77;0.75;;;;;;;24.20;48.49;99798.66;5083009;28;20021;-83
2022/06/09 04:33:57;;;;;;;2.03;0.73;;;;;;;24.18;48.65;99792.56;5083456;28;20032;-84
2022/06/09 04:36:23;;;;;;;2.92;1.00;;;;;;;24.18;48.52;99792.56;5084022;28;20389;-84
2022/06/09 04:38:48;;;;;;;1.85;0.65;;;;;;;24.16;48.56;99799.84;5085548;28;20039;-84
2022/06/09 04:41:16;;;;;;;3.15;0.98;;;;;;;24.15;48.33;99804.31;5082464;28;20020;-83
2022/06/09 04:43:44;;;;;;;2.28;0.77;;;;;;;24.15;48.44;99814.97;5079152;28;20058;-81
2022/06/09 04:46:13;;;;;;;3.13;0.80;;;;;;;24.13;48.70;99812.41;5076769;28;20061;-83
2022/06/09 04:48:38;;;;;;;2.47;0.70;;;;;;;24.14;48.66;99818.59;5076916;28;20043;-81
2022/06/09 04:51:09;;;;;;;2.08;0.75;;;;;;;24.14;48.70;99818.59;5075845;28;20025;-84
2022/06/09 04:53:37;;;;;;;1.90;0.80;;;;;;;24.12;48.54;99813.38;5075579;28;20118;-80
2022/06/09 04:56:04;;;;;;;3.10;1.00;;;;;;;24.12;48.67;99816.03;5076455;28;20055;-83
2022/06/09 04:58:29;;;;;;;2.58;1.00;;;;;;;24.13;48.54;99817.72;5075398;28;20028;-83
2022/06/09 05:00:55;;;;;;;3.63;0.90;;;;;;;24.11;48.64;99814.34;5075569;28;20028;-81
2022/06/09 05:03:21;;;;;;;2.95;1.05;;;;;;;24.10;48.63;99820.63;5075429;28;20032;-80
2022/06/09 05:05:49;;;;;;;3.03;1.00;;;;;;;24.09;48.54;99821.59;5078427;28;20397;-80
2022/06/09 05:08:15;;;;;;;1.70;0.57;;;;;;;24.10;48.41;99820.63;5075831;28;20036;-83
2022/06/09 05:10:43;;;;;;;3.40;0.80;;;;;;;24.08;48.63;99825.22;5076021;28;20055;-80
2022/06/09 05:13:09;;;;;;;2.88;1.00;;;;;;;24.08;48.62;99819.03;5075224;28;20093;-81
2022/06/09 05:15:38;;;;;;;2.65;0.68;;;;;;;24.08;48.62;99819.88;5076408;28;20063;-82
2022/06/09 05:18:04;;;;;;;1.55;0.57;;;;;;;24.09;48.63;99826.94;5076029;28;20032;-83
2022/06/09 05:20:30;;;;;;;3.33;1.27;;;;;;;24.07;48.48;99827.94;5075045;28;20098;-83
2022/06/09 05:22:56;;;;;;;2.95;1.05;;;;;;;24.08;48.51;99833.22;5076236;28;20029;-84
2022/06/09 05:25:23;;;;;;;3.40;1.08;;;;;;;24.06;48.46;99835.09;5076480;28;20038;-83
2022/06/09 05:27:48;;;;;;;3.15;0.93;;;;;;;24.05;48.36;99830.72;5074893;28;20043;-83
2022/06/09 05:30:19;;;;;;;2.85;0.90;;;;;;;24.06;48.55;99824.41;5074608;28;20028;-82
2022/06/09 05:32:45;;;;;;;1.73;0.70;;;;;;;24.08;48.57;99835.03;5074812;28;20043;-83
2022/06/09 05:35:11;;;;;;;2.60;0.98;;;;;;;24.08;48.67;99830.56;5074819;28;20029;-86
2022/06/09 05:45:51;;;;;;;3.47;0.93;;;;;;;24.06;48.77;99829.75;5078529;28;20093;-86
2022/06/09 05:48:18;;;;;;;2.25;0.70;;;;;;;24.06;48.62;99835.09;5075701;28;20029;-87
2022/06/09 05:50:43;;;;;;;2.47;1.00;;;;;;;24.06;48.72;99836.91;5076709;28;20124;-88
2022/06/09 05:53:09;;;;;;;1.65;0.90;;;;;;;24.06;48.69;99831.59;5076581;28;20052;-85
2022/06/09 05:55:34;;;;;;;2.88;0.80;;;;;;;24.06;48.89;99837.75;5077385;28;20399;-86
2022/06/09 05:58:00;;;;;;;3.20;0.70;;;;;;;24.06;48.76;99839.56;5076721;28;20024;-85
2022/06/09 06:00:26;;;;;;;2.88;0.85;;;;;;;24.06;48.74;99843.06;5076048;28;20463;-85
2022/06/09 06:02:51;;;;;;;1.65;0.70;;;;;;;24.06;48.62;99843.06;5077245;28;20032;-84
2022/06/09 06:08:04;;;;;;;4.15;1.00;;;;;;;24.07;48.51;99857.28;5078385;28;20047;-87
2022/06/09 06:10:29;;;;;;;2.85;0.70;;;;;;;24.09;48.74;99858.91;5076722;28;20055;-85
2022/06/09 06:12:55;;;;;;;3.28;0.90;;;;;;;24.09;48.65;99858.91;5076153;28;20024;-86
2022/06/09 06:15:21;;;;;;;2.78;0.80;;;;;;;24.08;48.55;99862.53;5075643;28;20028;-84
2022/06/09 06:17:46;;;;;;;3.85;0.90;;;;;;;24.09;48.60;99864.25;5076580;28;20028;-84
2022/06/09 06:20:12;;;;;;;3.70;0.95;;;;;;;24.12;48.70;99858.69;5075672;28;20450;-82
2022/06/09 06:22:37;;;;;;;3.40;1.00;;;;;;;24.12;48.60;99856.03;5078382;28;20024;-83
2022/06/09 06:25:06;;;;;;;3.55;0.93;;;;;;;24.13;48.67;99859.56;5079233;28;20039;-83
2022/06/09 06:27:31;;;;;;;3.70;1.13;;;;;;;24.13;48.73;99864.88;5076811;28;20020;-82
2022/06/09 06:29:57;;;;;;;4.03;1.10;;;;;;;24.13;48.46;99863.06;5079302;28;20052;-84
2022/06/09 06:32:22;;;;;;;3.47;1.15;;;;;;;24.13;48.65;99860.38;5078011;28;20039;-82
2022/06/09 06:34:48;;;;;;;3.30;0.98;;;;;;;24.15;48.35;99867.44;5077222;28;20029;-83
2022/06/09 06:37:14;;;;;;;3.28;1.00;;;;;;;24.16;48.46;99866.50;5077460;28;20035;-82
2022/06/09 06:39:39;;;;;;;4.25;1.05;;;;;;;24.18;48.36;99869.91;5077782;28;20021;-83
2022/06/09 06:42:05;;;;;;;3.58;1.20;;;;;;;24.17;48.58;99869.06;5079111;28;20033;-84
2022/06/09 06:44:31;;;;;;;3.55;0.90;;;;;;;24.20;48.44;99875.97;5078909;28;20032;-82
2022/06/09 06:46:56;;;;;;;2.88;0.90;;;;;;;24.21;48.42;99878.53;5080828;28;20028;-84
2022/06/09 06:49:24;;;;;;;2.40;0.90;;;;;;;24.22;48.23;99880.25;5082702;28;20462;-83
2022/06/09 06:51:50;;;;;;;3.85;1.15;;;;;;;24.23;48.26;99883.78;5085100;28;20032;-87
2022/06/09 06:54:18;;;;;;;3.40;1.13;;;;;;;24.23;48.25;99881.09;5079585;28;20020;-84
2022/06/09 06:56:46;;;;;;;4.80;1.08;;;;;;;24.24;48.40;99880.13;5082099;28;20027;-84
2022/06/09 06:59:11;;;;;;;2.25;0.90;;;;;;;24.24;48.29;99890.81;5066354;28;20028;-84
2022/06/09 07:01:37;;;;;;;1.88;0.70;;;;;;;24.22;48.43;99892.72;5085964;28;20111;-84
2022/06/09 07:04:03;;;;;;;5.47;1.25;;;;;;;24.22;48.26;99893.56;5085423;28;20028;-84
2022/06/09 07:06:28;;;;;;;3.00;0.82;;;;;;;24.22;48.16;99879.41;5085123;28;20055;-83
2022/06/09 07:08:54;;;;;;;2.75;0.95;;;;;;;24.23;48.40;99881.09;5078993;28;20048;-84
2022/06/09 07:11:20;;;;;;;3.10;0.80;;;;;;;24.21;48.33;99872.38;5079671;28;20020;-84
2022/06/09 07:13:45;;;;;;;4.53;1.20;;;;;;;24.23;48.15;99889.09;5079976;28;20024;-82
2022/06/09 07:16:12;;;;;;;1.88;0.80;;;;;;;24.24;48.26;99893.47;5077833;28;20365;-84
2022/06/09 07:18:38;;;;;;;4.13;1.10;;;;;;;24.24;48.39;99893.47;5078490;28;20039;-82
2022/06/09 07:21:05;;;;;;;2.50;0.85;;;;;;;24.23;48.32;99891.78;5079589;28;20020;-82
2022/06/09 07:23:32;;;;;;;2.53;0.68;;;;;;;24.25;48.38;99904.03;5079834;28;20035;-82
2022/06/09 07:25:59;;;;;;;2.53;0.80;;;;;;;24.24;48.44;99896.13;5079351;28;20035;-83
2022/06/09 07:28:25;;;;;;;2.85;0.80;;;;;;;24.23;48.26;99887.31;5078788;28;20032;-84
2022/06/09 07:30:59;;;;;;;3.00;0.80;;;;;;;24.23;48.40;99889.97;5077429;28;20025;-82
2022/06/09 07:33:30;;;;;;;3.22;0.77;;;;;;;24.25;48.43;99900.50;5078542;28;20530;-82
2022/06/09 07:35:57;;;;;;;2.03;0.80;;;;;;;24.25;48.32;99900.50;5078047;28;20450;-82
2022/06/09 07:38:24;;;;;;;2.78;0.77;;;;;;;24.27;48.45;99909.28;5077255;28;20063;-82
2022/06/09 07:40:51;;;;;;;1.98;0.70;;;;;;;24.28;48.45;99900.31;5077131;28;20465;-82
2022/06/09 07:43:16;;;;;;;3.25;0.80;;;;;;;24.30;48.28;99908.22;5078167;28;20178;-82
2022/06/09 07:45:43;;;;;;;2.97;0.95;;;;;;;24.31;48.28;99900.09;5080087;28;20024;-84
2022/06/09 07:48:08;;;;;;;2.85;0.82;;;;;;;24.33;48.26;99897.31;5077632;28;20056;-82
2022/06/09 07:50:34;;;;;;;3.00;1.00;;;;;;;24.37;48.09;99891.66;5077325;28;20063;-83
2022/06/09 07:53:01;;;;;;;3.60;1.00;;;;;;;24.37;48.06;99896.16;5077360;28;20016;-84
2022/06/09 07:55:29;;;;;;;2.58;0.73;;;;;;;24.38;48.14;99896.06;5078296;28;20025;-83
2022/06/09 07:57:55;;;;;;;2.10;0.73;;;;;;;24.40;48.07;99899.47;5078171;28;20021;-84
2022/06/09 08:00:22;;;;;;;2.75;0.70;;;;;;;24.42;48.13;99901.16;5077136;28;20041;-82
2022/06/09 08:02:50;;;;;;;2.70;0.80;;;;;;;24.46;47.98;99900.00;5077502;28;20369;-84
2022/06/09 08:05:18;;;;;;;2.65;0.85;;;;;;;24.47;47.95;99899.03;5078094;28;20031;-84
2022/06/09 08:07:44;;;;;;;2.65;0.80;;;;;;;24.47;48.08;99905.25;5077518;28;20031;-83
2022/06/09 08:10:12;;;;;;;2.75;1.00;;;;;;;24.48;47.97;99906.09;5077305;28;20051;-82
2022/06/09 08:12:38;;;;;;;2.83;0.82;;;;;;;24.49;47.96;99905.13;5076769;28;20031;-83
2022/06/09 08:15:05;;;;;;;3.22;1.17;;;;;;;24.50;47.81;99894.34;5076783;28;20024;-82
2022/06/09 08:17:31;;;;;;;2.92;0.90;;;;;;;24.50;47.68;99909.53;5078115;28;20104;-84
2022/06/09 08:19:56;;;;;;;3.42;0.88;;;;;;;24.52;47.67;99904.91;5077657;28;20020;-81
2022/06/09 08:22:22;;;;;;;2.30;0.80;;;;;;;24.53;47.83;99906.63;5079038;28;20020;-86
2022/06/09 08:24:47;;;;;;;2.30;0.85;;;;;;;24.53;47.99;99898.63;5076402;28;20042;-83
2022/06/09 08:27:13;;;;;;;3.30;0.93;;;;;;;24.54;47.79;99900.31;5078181;28;20025;-84
2022/06/09 08:29:39;;;;;;;1.58;0.52;;;;;;;24.57;47.53;99908.13;5075842;28;20016;-84
2022/06/09 08:32:05;;;;;;;4.18;1.00;;;;;;;24.58;47.50;99907.16;5076218;28;20028;-83
2022/06/09 08:34:30;;;;;;;3.35;0.80;;;;;;;24.58;47.81;99907.16;5076291;28;20020;-84
2022/06/09 08:36:56;;;;;;;2.88;0.88;;;;;;;24.60;47.52;99904.38;5077675;28;20043;-82
2022/06/09 08:39:22;;;;;;;2.35;0.70;;;;;;;24.60;47.75;99907.91;5076539;28;20020;-84
2022/06/09 08:41:56;;;;;;;3.70;0.85;;;;;;;24.61;47.35;99896.28;5076387;28;20464;-82
2022/06/09 08:44:27;;;;;;;2.13;0.70;;;;;;;24.61;47.69;99896.28;5076584;28;20035;-83
2022/06/09 08:47:08;;;;;;;3.17;1.05;;;;;;;24.63;47.55;99902.38;5077424;28;20328;-84
2022/06/09 08:49:43;;;;;;;3.95;0.93;;;;;;;24.62;47.71;99895.31;5078163;28;20025;-84
2022/06/09 08:52:34;;;;;;;3.17;0.82;;;;;;;24.63;47.66;99894.34;5080678;28;20020;-83
2022/06/09 08:55:15;;;;;;;4.35;1.13;;;;;;;24.65;47.66;99902.25;5079295;28;20055;-84
2022/06/09 08:57:43;;;;;;;2.83;0.70;;;;;;;24.67;47.46;99903.88;5079523;28;20027;-82
2022/06/09 09:00:15;;;;;;;2.90;0.68;;;;;;;24.66;47.55;99904.78;5081130;28;20454;-83
2022/06/09 09:02:45;;;;;;;2.80;0.70;;;;;;;24.66;47.59;99899.47;5081543;28;20020;-88
2022/06/09 09:05:26;;;;;;;4.03;1.00;;;;;;;24.69;47.37;99914.41;5080004;28;20020;-82
2022/06/09 09:07:56;;;;;;;2.72;0.85;;;;;;;24.71;47.60;99911.63;5085129;28;20016;-84
2022/06/09 09:10:28;;;;;;;2.63;0.70;;;;;;;24.74;47.43;99914.09;5081634;28;20044;-85
2022/06/09 09:13:07;;;;;;;3.58;0.77;;;;;;;24.76;47.36;99905.03;5083179;28;20040;-83
2022/06/09 09:15:42;;;;;;;3.30;1.00;;;;;;;24.77;47.30;99905.88;5084591;28;20387;-84
2022/06/09 09:18:35;;;;;;;4.65;0.90;;;;;;;24.79;47.15;99910.13;5084309;28;20032;-85
2022/06/09 09:21:19;;;;;;;2.13;0.60;;;;;;;24.81;47.39;99904.72;5083795;28;20028;-85
2022/06/09 09:23:57;;;;;;;2.88;0.93;;;;;;;24.82;47.17;99903.75;5084222;28;20123;-86
2022/06/09 09:26:44;;;;;;;2.30;0.70;;;;;;;24.84;47.29;99901.84;5083498;28;20028;-85
2022/06/09 09:29:16;;;;;;;1.88;0.70;;;;;;;24.85;47.16;99903.56;5083375;28;20024;-84
2022/06/09 09:31:54;;;;;;;3.17;0.85;;;;;;;24.88;47.20;99902.47;5079902;28;20480;-84
2022/06/09 09:34:23;;;;;;;3.60;0.90;;;;;;;24.88;47.09;99906.00;5074954;28;20028;-82
2022/06/09 09:36:58;;;;;;;2.92;0.77;;;;;;;24.90;47.07;99900.56;5075276;28;20036;-82
2022/06/09 09:39:40;;;;;;;3.85;0.90;;;;;;;24.91;47.27;99908.47;5074947;28;20043;-82
2022/06/09 09:42:17;;;;;;;3.03;0.70;;;;;;;24.92;47.27;99912.84;5074693;28;20017;-84
2022/06/09 09:44:58;;;;;;;2.92;0.70;;;;;;;24.94;47.21;99910.91;5076261;28;20112;-82
2022/06/09 09:47:26;;;;;;;2.60;0.52;;;;;;;24.97;47.24;99911.63;5076976;28;20035;-83
2022/06/09 09:49:55;;;;;;;2.15;0.60;;;;;;;24.97;47.08;99908.97;5074996;28;20112;-82
2022/06/09 09:52:44;;;;;;;1.75;0.75;;;;;;;25.00;47.09;99916.78;5074883;28;20373;-84
2022/06/09 09:55:51;;;;;;;3.15;0.70;;;;;;;25.02;47.18;99920.19;5077498;28;20020;-86
2022/06/09 09:58:34;;;;;;;2.33;0.55;;;;;;;25.02;46.88;99917.50;5036953;28;20090;-84
2022/06/09 10:01:25;;;;;;;2.30;0.60;;;;;;;25.02;46.90;99914.84;5072100;28;20024;-83
2022/06/09 10:09:59;;;;;;;2.10;0.57;;;;;;;25.07;46.70;99918.91;5075083;28;20101;-82
2022/06/09 10:12:31;;;;;;;1.85;0.68;;;;;;;25.08;46.83;99917.06;5074658;28;20024;-82
2022/06/09 10:15:09;;;;;;;3.38;0.80;;;;;;;25.09;47.03;99916.13;5074388;28;20539;-82
2022/06/09 10:17:38;;;;;;;1.67;0.60;;;;;;;25.08;46.95;99919.72;5075465;28;20036;-85
2022/06/09 10:20:28;;;;;;;2.15;0.57;;;;;;;25.11;46.95;99914.19;5074890;28;20502;-82
2022/06/09 10:23:11;;;;;;;1.38;0.63;;;;;;;25.10;46.96;99915.16;5075282;28;20093;-83
2022/06/09 10:25:43;;;;;;;2.15;0.63;;;;;;;25.10;46.78;99917.84;5076047;28;20115;-84
2022/06/09 10:28:33;;;;;;;4.00;0.80;;;;;;;25.11;46.98;99919.53;5076815;28;20145;-83
2022/06/09 10:31:28;;;;;;;1.08;0.40;;;;;;;25.12;46.93;99917.72;5074300;28;20032;-82
2022/06/09 10:34:35;;;;;;;1.98;0.75;;;;;;;25.13;46.78;99919.44;5070486;28;20032;-81
2022/06/09 10:37:04;;;;;;;1.25;0.47;;;;;;;25.13;46.76;99914.94;5075626;28;20051;-82
2022/06/09 10:39:41;;;;;;;1.42;0.40;;;;;;;25.14;46.74;99924.63;5076198;28;20476;-84
2022/06/09 10:42:10;;;;;;;1.90;0.60;;;;;;;25.16;46.74;99921.88;5076103;28;20032;-83
2022/06/09 10:44:46;;;;;;;0.90;0.40;;;;;;;25.17;46.61;99913.75;5074829;28;20101;-81
2022/06/09 10:57:01;;;;;;;3.10;0.60;;;;;;;25.25;46.62;99915.00;5076330;28;20101;-82
2022/06/09 10:59:43;;;;;;;1.15;0.47;;;;;;;25.26;46.71;99917.56;5052718;28;20443;-82
2022/06/09 11:02:31;;;;;;;1.80;0.52;;;;;;;25.28;46.72;99920.13;5074136;28;20127;-82
2022/06/09 11:04:57;;;;;;;1.67;0.70;;;;;;;25.29;46.59;99927.19;5075467;28;20587;-83
2022/06/09 11:07:47;;;;;;;1.83;0.60;;;;;;;25.30;46.53;99923.53;5076836;28;20021;-85
2022/06/09 11:10:24;;;;;;;2.33;0.57;;;;;;;25.31;46.57;99933.25;5075258;28;20125;-83
2022/06/09 11:13:00;;;;;;;1.67;0.32;;;;;;;25.32;46.76;99921.59;5077149;28;20028;-83
2022/06/09 11:15:37;;;;;;;1.40;0.50;;;;;;;25.34;46.43;99920.53;5075190;28;20033;-86
2022/06/09 11:18:37;;;;;;;1.13;0.50;;;;;;;25.36;46.64;99928.44;5075624;28;20060;-82
2022/06/09 11:21:33;;;;;;;1.50;0.50;;;;;;;25.36;46.36;99931.13;5075841;28;20025;-83
2022/06/09 11:24:37;;;;;;;2.65;0.70;;;;;;;25.37;46.64;99932.81;5076815;28;20032;-83
2022/06/09 11:27:02;;;;;;;0.93;0.30;;;;;;;25.37;46.65;99935.47;5070487;28;20071;-84
2022/06/09 11:29:54;;;;;;;1.25;0.50;;;;;;;25.38;46.69;99931.88;5074465;28;20438;-83
2022/06/09 11:32:52;;;;;;;1.60;0.60;;;;;;;25.41;46.50;99926.28;5073177;28;20064;-82
2022/06/09 11:35:38;;;;;;;0.95;0.40;;;;;;;25.41;46.37;99931.63;5069762;28;20040;-83
2022/06/09 11:38:29;;;;;;;2.35;0.63;;;;;;;25.42;46.45;99927.16;5081255;28;20153;-83
2022/06/09 11:41:04;;;;;;;1.42;0.50;;;;;;;25.43;46.67;99921.69;5082133;28;20027;-84
2022/06/09 11:44:00;;;;;;;2.45;0.70;;;;;;;25.43;46.41;99928.88;5081612;28;20024;-83
2022/06/09 11:46:31;;;;;;;2.28;0.60;;;;;;;25.44;46.38;99934.09;5082078;28;20385;-84
2022/06/09 11:49:04;;;;;;;2.50;0.63;;;;;;;25.43;46.57;99935.03;5084803;28;20139;-85
2022/06/09 11:51:31;;;;;;;1.85;0.40;;;;;;;25.43;46.40;99929.69;5086810;28;20100;-85
2022/06/09 11:54:05;;;;;;;1.00;0.40;;;;;;;25.44;46.70;99926.09;5087009;28;20416;-84
2022/06/09 11:56:43;;;;;;;0.93;0.40;;;;;;;25.46;46.75;99917.94;5079251;28;20032;-82
2022/06/09 11:59:11;;;;;;;2.13;0.52;;;;;;;25.46;46.47;99912.59;5078101;28;20021;-81
2022/06/09 12:01:37;;;;;;;0.45;0.38;;;;;;;25.47;46.38;99914.31;5077217;28;20046;-82
2022/06/09 12:04:38;;;;;;;0.63;0.32;;;;;;;25.49;46.24;99915.06;5076546;28;20029;-82
2022/06/09 12:07:34;;;;;;;2.38;0.60;;;;;;;25.51;46.24;99909.59;5077663;28;20059;-84
2022/06/09 12:10:31;;;;;;;1.57;0.50;;;;;;;25.52;46.40;99908.63;5076146;28;20121;-81
2022/06/09 12:13:13;;;;;;;2.28;0.50;;;;;;;25.51;46.48;99907.78;5076279;28;20032;-85
2022/06/09 12:16:02;;;;;;;2.42;0.55;;;;;;;25.52;46.36;99912.13;5076352;28;20052;-81
2022/06/09 12:18:36;;;;;;;2.53;0.60;;;;;;;25.53;46.48;99919.25;5076058;28;20028;-83
2022/06/09 12:21:10;;;;;;;1.15;0.30;;;;;;;25.53;46.39;99915.69;5075902;28;20050;-83